Bulk Holland — 9V5135 — position and weather

sailwx.info

Track history (hours):
 
Tides and Currents Weather Stations Pressure Air Temp Water Temp Dewpoint Dewpoint Depression Visibility Wind Speed Wind Dir Waves Ship Positions

Bulk Holland

Last reported at 2018-Jun-17 13:18 UTC. Time now 2018-Jun-25 19:32 UTC.
Position N 37°05' E 003°01'.
Warning: this ship's position is 8 days out of date.

Length 229 m; draft 13.8 m.

MMSI: 563013900.

Date/timePositionNaut miles runAvg speedWind from/ knotsBaromVisibWave heightAir tempDewpointWater temp
2018-Jun-17 13:18N 37°05' E 003°01'412.9
2018-Jun-17 12:57N 37°05' E 002°55'612.9
2018-Jun-17 12:28N 37°04' E 002°47'712.9
2018-Jun-17 11:54N 37°04' E 002°38'513.2
2018-Jun-17 11:30N 37°03' E 002°32'713.7
2018-Jun-17 11:00N 37°02' E 002°23'1914.3
2018-Jun-17 09:42N 37°00' E 002°00'314.6
2018-Jun-17 09:30N 36°60' E 001°57'714.6
2018-Jun-17 09:00N 36°57' E 001°48'714.4
2018-Jun-17 08:30N 36°55' E 001°39'1214.2
2018-Jun-17 07:38N 36°52' E 001°24'414.0
2018-Jun-17 07:23N 36°51' E 001°20'814.0
2018-Jun-17 06:49N 36°49' E 001°11'1313.9
2018-Jun-17 05:51N 36°45' E 000°55'513.9
2018-Jun-17 05:30N 36°43' E 000°49'714.0
2018-Jun-17 05:00N 36°41' E 000°41'713.8
2018-Jun-17 04:29N 36°39' E 000°32'714.0
2018-Jun-17 04:00N 36°38' E 000°24'714.1
2018-Jun-17 03:30N 36°36' E 000°15'813.9
2018-Jun-17 02:54N 36°33' E 000°05'613.6
2018-Jun-17 02:27N 36°32' W 000°02'713.3
2018-Jun-17 01:54N 36°30' W 000°11'513.2
2018-Jun-17 01:30N 36°28' W 000°17'713.4
2018-Jun-17 01:00N 36°26' W 000°25'713.6
2018-Jun-17 00:29N 36°24' W 000°33'714.0
2018-Jun-17 00:00N 36°23' W 000°42'714.2
2018-Jun-16 23:30N 36°21' W 000°50'713.9
2018-Jun-16 23:00N 36°19' W 000°58'3014.4
2018-Jun-16 20:55N 36°16' W 001°35'17514.9
2018-Jun-16 09:11N 36°02' W 005°12'213.8
2018-Jun-16 09:01N 36°02' W 005°14'712.3
2018-Jun-16 08:28N 36°05' W 005°22'2 4.1
2018-Jun-16 07:57N 36°07' W 005°22'1 0.3
2018-Jun-16 06:18N 36°07' W 005°22'0 0.0
2018-Jun-16 06:00N 36°07' W 005°22'0 0.1
2018-Jun-16 05:30N 36°07' W 005°22'0 0.4
2018-Jun-16 05:00N 36°07' W 005°22'0 0.1
2018-Jun-16 04:27N 36°07' W 005°22'0 0.4
2018-Jun-16 04:00N 36°07' W 005°22'0 0.2
2018-Jun-16 02:36N 36°07' W 005°22'0 0.2
2018-Jun-16 02:30N 36°07' W 005°22'0 0.3
2018-Jun-16 02:00N 36°07' W 005°22'0 0.2
2018-Jun-16 01:30N 36°07' W 005°22'0 0.0
2018-Jun-16 01:00N 36°07' W 005°22'0 0.1
2018-Jun-16 00:30N 36°07' W 005°22'0 0.1
2018-Jun-16 00:00N 36°07' W 005°22'0 0.1
2018-Jun-15 23:30N 36°07' W 005°22'0 0.0
2018-Jun-15 23:00N 36°07' W 005°22'0 0.2
2018-Jun-15 22:30N 36°07' W 005°22'0 0.2
2018-Jun-15 22:00N 36°07' W 005°22'0 0.4
2018-Jun-15 21:30N 36°07' W 005°22'0 0.1
2018-Jun-15 21:00N 36°07' W 005°22'0 0.0
2018-Jun-15 20:30N 36°07' W 005°22'0 0.1
2018-Jun-15 19:48N 36°07' W 005°22'0 0.1
2018-Jun-15 19:30N 36°07' W 005°22'0 0.3
2018-Jun-15 18:55N 36°07' W 005°22'1 3.3
2018-Jun-15 18:30N 36°05' W 005°22'3 6.1
2018-Jun-15 18:00N 36°04' W 005°18'3 6.5
2018-Jun-15 17:30N 36°04' W 005°14'2 3.3
2018-Jun-15 17:00N 36°05' W 005°13'0 0.8
2018-Jun-15 16:30N 36°05' W 005°13'1 1.2
2018-Jun-15 15:59N 36°05' W 005°14'0 0.8
2018-Jun-15 15:26N 36°06' W 005°14'0 1.0
2018-Jun-15 15:00N 36°05' W 005°14'0 0.3
2018-Jun-15 14:14N 36°05' W 005°14'0 1.5
2018-Jun-15 14:00N 36°06' W 005°14'1 1.3
2018-Jun-15 13:18N 36°06' W 005°13'0 1.0
2018-Jun-15 12:48N 36°06' W 005°14'1 2.6
2018-Jun-15 12:30N 36°05' W 005°14'1 1.4
2018-Jun-15 11:59N 36°05' W 005°13'7 1.0
2018-Jun-15 05:25N 36°07' W 005°06'7 6.3
2018-Jun-15 04:20N 36°02' W 005°11'413.7
2018-Jun-15 04:00N 35°60' W 005°16'714.0
2018-Jun-15 03:30N 35°58' W 005°24'713.7
2018-Jun-15 03:00N 35°57' W 005°32'713.3
2018-Jun-15 02:29N 35°55' W 005°40'612.1
2018-Jun-15 02:00N 35°55' W 005°48'24213.4
2018-Jun-14 07:59N 36°30' W 010°44'10213.2
2018-Jun-14 00:16N 36°45' W 012°49'1713.6
2018-Jun-13 23:00N 36°48' W 013°11'713.9
2018-Jun-13 22:30N 36°49' W 013°19'713.7
2018-Jun-13 22:00N 36°50' W 013°28'714.0
2018-Jun-13 21:29N 36°50' W 013°37'714.1
2018-Jun-13 20:57N 36°51' W 013°46'613.9
2018-Jun-13 20:30N 36°52' W 013°54'713.9
2018-Jun-13 19:58N 36°53' W 014°03'35513.8
2018-Jun-12 18:18N 37°24' W 021°26'1613.9
2018-Jun-12 17:10N 37°25' W 021°46'3413.8
2018-Jun-12 14:43N 37°26' W 022°29'413.7
2018-Jun-12 14:24N 37°26' W 022°34'713.8
2018-Jun-12 13:56N 37°26' W 022°42'913.9
2018-Jun-12 13:18N 37°27' W 022°53'414.1
2018-Jun-12 13:00N 37°27' W 022°59'714.2
2018-Jun-12 12:30N 37°27' W 023°08'714.4
2018-Jun-12 12:00N 37°27' W 023°17'714.3
2018-Jun-12 11:30N 37°27' W 023°26'714.2
2018-Jun-12 11:01N 37°28' W 023°35'714.2
2018-Jun-12 10:30N 37°28' W 023°44'714.1
2018-Jun-12 10:00N 37°28' W 023°52'714.4
2018-Jun-12 09:31N 37°28' W 024°02'714.3
2018-Jun-12 09:00N 37°28' W 024°11'714.3
2018-Jun-12 08:30N 37°28' W 024°20'714.5
2018-Jun-12 08:01N 37°28' W 024°29'713.9
2018-Jun-12 07:30N 37°29' W 024°37'713.7
2018-Jun-12 07:00N 37°29' W 024°46'714.2
2018-Jun-12 06:31N 37°29' W 024°55'714.1
2018-Jun-12 06:00N 37°29' W 025°04'713.8
2018-Jun-12 05:30N 37°29' W 025°13'714.0
2018-Jun-12 05:01N 37°29' W 025°21'714.0
2018-Jun-12 04:30N 37°29' W 025°30'714.1
2018-Jun-12 04:00N 37°29' W 025°39'714.1
2018-Jun-12 03:30N 37°29' W 025°48'714.0
2018-Jun-12 03:01N 37°29' W 025°57'714.0
2018-Jun-12 02:30N 37°29' W 026°06'713.9
2018-Jun-12 02:00N 37°29' W 026°14'714.5
2018-Jun-12 01:31N 37°29' W 026°23'714.3
2018-Jun-12 01:00N 37°29' W 026°33'714.2
2018-Jun-12 00:30N 37°29' W 026°41'713.9
2018-Jun-12 00:01N 37°29' W 026°50'714.4
2018-Jun-11 23:30N 37°29' W 026°59'714.3
2018-Jun-11 23:00N 37°28' W 027°08'1914.2
2018-Jun-11 21:42N 37°28' W 027°32'314.5
2018-Jun-11 21:30N 37°28' W 027°35'714.1
2018-Jun-11 21:00N 37°28' W 027°44'714.1
2018-Jun-11 20:30N 37°28' W 027°53'714.3
2018-Jun-11 20:00N 37°28' W 028°02'714.0
2018-Jun-11 19:30N 37°28' W 028°11'713.7
2018-Jun-11 19:00N 37°28' W 028°19'713.8
2018-Jun-11 18:30N 37°27' W 028°28'713.8
2018-Jun-11 18:00N 37°27' W 028°37'714.2
2018-Jun-11 17:30N 37°27' W 028°46'713.9
2018-Jun-11 17:00N 37°27' W 028°55'714.0
2018-Jun-11 16:30N 37°27' W 029°03'713.9
2018-Jun-11 16:00N 37°26' W 029°12'713.7
2018-Jun-11 15:30N 37°26' W 029°21'713.9
2018-Jun-11 15:00N 37°26' W 029°29'914.0
2018-Jun-11 14:23N 37°25' W 029°40'1614.1
2018-Jun-11 13:13N 37°25' W 030°01'714.3
2018-Jun-11 12:42N 37°24' W 030°10'7814.2
2018-Jun-11 07:14N 37°20' W 031°48'  
Track history (hours):
 
Tides and Currents Weather Stations Pressure Air Temp Water Temp Dewpoint Dewpoint Depression Visibility Wind Speed Wind Dir Waves Ship Positions

Bulk Holland

Last reported at 2018-Jun-17 13:18 UTC. Time now 2018-Jun-25 19:32 UTC.
Position N 37°05' E 003°01'.
Warning: this ship's position is 8 days out of date.

Length 229 m; draft 13.8 m.

MMSI: 563013900.

Date/timePositionNaut miles runAvg speedWind from/ knotsBaromVisibWave heightAir tempDewpointWater temp
2018-Jun-17 13:18N 37°05' E 003°01'412.9
2018-Jun-17 12:57N 37°05' E 002°55'612.9
2018-Jun-17 12:28N 37°04' E 002°47'712.9
2018-Jun-17 11:54N 37°04' E 002°38'513.2
2018-Jun-17 11:30N 37°03' E 002°32'713.7
2018-Jun-17 11:00N 37°02' E 002°23'1914.3
2018-Jun-17 09:42N 37°00' E 002°00'314.6
2018-Jun-17 09:30N 36°60' E 001°57'714.6
2018-Jun-17 09:00N 36°57' E 001°48'714.4
2018-Jun-17 08:30N 36°55' E 001°39'1214.2
2018-Jun-17 07:38N 36°52' E 001°24'414.0
2018-Jun-17 07:23N 36°51' E 001°20'814.0
2018-Jun-17 06:49N 36°49' E 001°11'1313.9
2018-Jun-17 05:51N 36°45' E 000°55'513.9
2018-Jun-17 05:30N 36°43' E 000°49'714.0
2018-Jun-17 05:00N 36°41' E 000°41'713.8
2018-Jun-17 04:29N 36°39' E 000°32'714.0
2018-Jun-17 04:00N 36°38' E 000°24'714.1
2018-Jun-17 03:30N 36°36' E 000°15'813.9
2018-Jun-17 02:54N 36°33' E 000°05'613.6
2018-Jun-17 02:27N 36°32' W 000°02'713.3
2018-Jun-17 01:54N 36°30' W 000°11'513.2
2018-Jun-17 01:30N 36°28' W 000°17'713.4
2018-Jun-17 01:00N 36°26' W 000°25'713.6
2018-Jun-17 00:29N 36°24' W 000°33'714.0
2018-Jun-17 00:00N 36°23' W 000°42'714.2
2018-Jun-16 23:30N 36°21' W 000°50'713.9
2018-Jun-16 23:00N 36°19' W 000°58'3014.4
2018-Jun-16 20:55N 36°16' W 001°35'17514.9
2018-Jun-16 09:11N 36°02' W 005°12'213.8
2018-Jun-16 09:01N 36°02' W 005°14'712.3
2018-Jun-16 08:28N 36°05' W 005°22'2 4.1
2018-Jun-16 07:57N 36°07' W 005°22'1 0.3
2018-Jun-16 06:18N 36°07' W 005°22'0 0.0
2018-Jun-16 06:00N 36°07' W 005°22'0 0.1
2018-Jun-16 05:30N 36°07' W 005°22'0 0.4
2018-Jun-16 05:00N 36°07' W 005°22'0 0.1
2018-Jun-16 04:27N 36°07' W 005°22'0 0.4
2018-Jun-16 04:00N 36°07' W 005°22'0 0.2
2018-Jun-16 02:36N 36°07' W 005°22'0 0.2
2018-Jun-16 02:30N 36°07' W 005°22'0 0.3
2018-Jun-16 02:00N 36°07' W 005°22'0 0.2
2018-Jun-16 01:30N 36°07' W 005°22'0 0.0
2018-Jun-16 01:00N 36°07' W 005°22'0 0.1
2018-Jun-16 00:30N 36°07' W 005°22'0 0.1
2018-Jun-16 00:00N 36°07' W 005°22'0 0.1
2018-Jun-15 23:30N 36°07' W 005°22'0 0.0
2018-Jun-15 23:00N 36°07' W 005°22'0 0.2
2018-Jun-15 22:30N 36°07' W 005°22'0 0.2
2018-Jun-15 22:00N 36°07' W 005°22'0 0.4
2018-Jun-15 21:30N 36°07' W 005°22'0 0.1
2018-Jun-15 21:00N 36°07' W 005°22'0 0.0
2018-Jun-15 20:30N 36°07' W 005°22'0 0.1
2018-Jun-15 19:48N 36°07' W 005°22'0 0.1
2018-Jun-15 19:30N 36°07' W 005°22'0 0.3
2018-Jun-15 18:55N 36°07' W 005°22'1 3.3
2018-Jun-15 18:30N 36°05' W 005°22'3 6.1
2018-Jun-15 18:00N 36°04' W 005°18'3 6.5
2018-Jun-15 17:30N 36°04' W 005°14'2 3.3
2018-Jun-15 17:00N 36°05' W 005°13'0 0.8
2018-Jun-15 16:30N 36°05' W 005°13'1 1.2
2018-Jun-15 15:59N 36°05' W 005°14'0 0.8
2018-Jun-15 15:26N 36°06' W 005°14'0 1.0
2018-Jun-15 15:00N 36°05' W 005°14'0 0.3
2018-Jun-15 14:14N 36°05' W 005°14'0 1.5
2018-Jun-15 14:00N 36°06' W 005°14'1 1.3
2018-Jun-15 13:18N 36°06' W 005°13'0 1.0
2018-Jun-15 12:48N 36°06' W 005°14'1 2.6
2018-Jun-15 12:30N 36°05' W 005°14'1 1.4
2018-Jun-15 11:59N 36°05' W 005°13'7 1.0
2018-Jun-15 05:25N 36°07' W 005°06'7 6.3
2018-Jun-15 04:20N 36°02' W 005°11'413.7
2018-Jun-15 04:00N 35°60' W 005°16'714.0
2018-Jun-15 03:30N 35°58' W 005°24'713.7
2018-Jun-15 03:00N 35°57' W 005°32'713.3
2018-Jun-15 02:29N 35°55' W 005°40'612.1
2018-Jun-15 02:00N 35°55' W 005°48'24213.4
2018-Jun-14 07:59N 36°30' W 010°44'10213.2
2018-Jun-14 00:16N 36°45' W 012°49'1713.6
2018-Jun-13 23:00N 36°48' W 013°11'713.9
2018-Jun-13 22:30N 36°49' W 013°19'713.7
2018-Jun-13 22:00N 36°50' W 013°28'714.0
2018-Jun-13 21:29N 36°50' W 013°37'714.1
2018-Jun-13 20:57N 36°51' W 013°46'613.9
2018-Jun-13 20:30N 36°52' W 013°54'713.9
2018-Jun-13 19:58N 36°53' W 014°03'35513.8
2018-Jun-12 18:18N 37°24' W 021°26'1613.9
2018-Jun-12 17:10N 37°25' W 021°46'3413.8
2018-Jun-12 14:43N 37°26' W 022°29'413.7
2018-Jun-12 14:24N 37°26' W 022°34'713.8
2018-Jun-12 13:56N 37°26' W 022°42'913.9
2018-Jun-12 13:18N 37°27' W 022°53'414.1
2018-Jun-12 13:00N 37°27' W 022°59'714.2
2018-Jun-12 12:30N 37°27' W 023°08'714.4
2018-Jun-12 12:00N 37°27' W 023°17'714.3
2018-Jun-12 11:30N 37°27' W 023°26'714.2
2018-Jun-12 11:01N 37°28' W 023°35'714.2
2018-Jun-12 10:30N 37°28' W 023°44'714.1
2018-Jun-12 10:00N 37°28' W 023°52'714.4
2018-Jun-12 09:31N 37°28' W 024°02'714.3
2018-Jun-12 09:00N 37°28' W 024°11'714.3
2018-Jun-12 08:30N 37°28' W 024°20'714.5
2018-Jun-12 08:01N 37°28' W 024°29'713.9
2018-Jun-12 07:30N 37°29' W 024°37'713.7
2018-Jun-12 07:00N 37°29' W 024°46'714.2
2018-Jun-12 06:31N 37°29' W 024°55'714.1
2018-Jun-12 06:00N 37°29' W 025°04'713.8
2018-Jun-12 05:30N 37°29' W 025°13'714.0
2018-Jun-12 05:01N 37°29' W 025°21'714.0
2018-Jun-12 04:30N 37°29' W 025°30'714.1
2018-Jun-12 04:00N 37°29' W 025°39'714.1
2018-Jun-12 03:30N 37°29' W 025°48'714.0
2018-Jun-12 03:01N 37°29' W 025°57'714.0
2018-Jun-12 02:30N 37°29' W 026°06'713.9
2018-Jun-12 02:00N 37°29' W 026°14'714.5
2018-Jun-12 01:31N 37°29' W 026°23'714.3
2018-Jun-12 01:00N 37°29' W 026°33'714.2
2018-Jun-12 00:30N 37°29' W 026°41'713.9
2018-Jun-12 00:01N 37°29' W 026°50'714.4
2018-Jun-11 23:30N 37°29' W 026°59'714.3
2018-Jun-11 23:00N 37°28' W 027°08'1914.2
2018-Jun-11 21:42N 37°28' W 027°32'314.5
2018-Jun-11 21:30N 37°28' W 027°35'714.1
2018-Jun-11 21:00N 37°28' W 027°44'714.1
2018-Jun-11 20:30N 37°28' W 027°53'714.3
2018-Jun-11 20:00N 37°28' W 028°02'714.0
2018-Jun-11 19:30N 37°28' W 028°11'713.7
2018-Jun-11 19:00N 37°28' W 028°19'713.8
2018-Jun-11 18:30N 37°27' W 028°28'713.8
2018-Jun-11 18:00N 37°27' W 028°37'714.2
2018-Jun-11 17:30N 37°27' W 028°46'713.9
2018-Jun-11 17:00N 37°27' W 028°55'714.0
2018-Jun-11 16:30N 37°27' W 029°03'713.9
2018-Jun-11 16:00N 37°26' W 029°12'713.7
2018-Jun-11 15:30N 37°26' W 029°21'713.9
2018-Jun-11 15:00N 37°26' W 029°29'914.0
2018-Jun-11 14:23N 37°25' W 029°40'1614.1
2018-Jun-11 13:13N 37°25' W 030°01'714.3
2018-Jun-11 12:42N 37°24' W 030°10'7814.2
2018-Jun-11 07:14N 37°20' W 031°48'  

Dump ship's entire track history